Hovedside
METAR-TAF:

METAR-TAF

Lufthavner :

Bamako-Sénou internasjonale lufthavn

Bamako, Mali

breddegrad: 12-32N, lengdegrad: 007-57W, høyde over havet: 380 m

Gjeldene værobservasjon

Denne rapporten ble laget for 35 minutter siden, klokken 20:00 UTC
Vind 6 kt fra Nordøst
Temperatur 27°C
Luftfuktighet 34%
Trykk 1013 hPa
Sikt 10 km eller mer
ingen skyer under 1500 m og ingen bygeskyer

METAR: GABS 182000Z 05006KT CAVOK 27/10 Q1013 NOSIG

Tid: 20:35 (20:35 UTC)

Varsel

Denne rapporten ble laget for 3 timer og 35 minutter siden, klokken 17:00 UTC
Varsel gyldig fra 18. klokken 18 UTC til 19. klokken 24 UTC
Vind 8 kt fra Øst-nordøst med vindkast opp mot 18 kt
Sikt 10 km eller mer
ingen skyer under 1500 m og ingen bygeskyer
Sannsynlighet 40% :
Midlertidig
fra 19. klokken 06 UTC til 19. klokken 11 UTC
Sikt: 4000 m
dis

TAF: GABS 181700Z 1818/1924 06008G18KT CAVOK PROB40 TEMPO 1906/1911 4000 HZ

Værobservasjoner og værvarsel for over 4000 flyplasser (METAR- og TAF-rapporter).

Tilgjengelige stasjoner er representert av de røde og gule prikkene på kartet.

Hold musepekeren over prikken for å se navnet på stasjonen.

Klikk så for å se værobservasjoner og -varsler.

For å forandre kartet kan du klikke på den grønne knappen med svart kryss for å zoome inn, på den grønne knappen med strek for å zoome ut, eller på de grønne pilene for å se tilstøtende kart.


METAR-TAF: